Terminal Aerodrome Forecast
Issued by NWS

Home | Current Version | Previous Version | Text Only | Print | Product List | Glossary On
Versions: 1 2 3 4 5 6 7 8 9 10 11 12 13 14 15
000
FTUS42 TJSJ 251100
TAFKPK
TAF
TKPK 251127Z 2512/2612 08016KT P6SM BKN015
     FM251400 11014KT P6SM FEW022
     FM252300 09009KT P6SM FEW019=

USA.gov is the U.S. government's official web portal to all federal, state and local government web resources and services.